TUPJ/RAD METAR and TAF weather

Enter ICAO airport designator
Station Type Date Time Source
TUPJ METAR 2019/10/23 02:00 UTC NOAA

TUPJ 230200Z 07006KT 10SM SCT018 27/23 A2993 RMK Q1013 VIS25KM


Station Type Date Time Source
TUPJ Decoded METAR 2019/10/23 02:00 UTC NOAA

Beef Island, Tortola, British Virgin Islands (TUPJ) 18-27N 064-32W
Oct 22, 2019 - 10:00 PM EDT / 2019.10.23 0200 UTC
Wind: from the ENE (070 degrees) at 7 MPH (6 KT):0
Visibility: 10 mile(s):0
Sky conditions: partly cloudy
Temperature: 80 F (27 C)
Dew Point: 73 F (23 C)
Relative Humidity: 78%
Pressure (altimeter): 29.93 in. Hg (1013 hPa)
ob: TUPJ 230200Z 07006KT 10SM SCT018 27/23 A2993 RMK Q1013 VIS25KM
cycle: 2

Station Type Date Time Source
TUPJ TAF 2019/10/23 00:57 UTC NOAA

TAF
AMD TUPJ 230200Z 2300/2324 CNL

Example: see airport list